sensor_id;sensor_type;location;lat;lon;timestamp;P1;durP1;ratioP1;P2;durP2;ratioP2
73508;SDS011;61750;55.036;73.312;2022-08-23T00:01:51;3.73;;;2.10;;
73508;SDS011;61750;55.036;73.312;2022-08-23T00:04:26;6.28;;;2.15;;
73508;SDS011;61750;55.036;73.312;2022-08-23T00:07:01;5.50;;;1.83;;
73508;SDS011;61750;55.036;73.312;2022-08-23T00:09:28;3.90;;;2.30;;
73508;SDS011;61750;55.036;73.312;2022-08-23T00:14:33;8.25;;;5.70;;
73508;SDS011;61750;55.036;73.312;2022-08-23T00:17:01;11.30;;;7.55;;
73508;SDS011;61750;55.036;73.312;2022-08-23T00:19:35;43.75;;;27.95;;
73508;SDS011;61750;55.036;73.312;2022-08-23T00:22:06;56.13;;;34.47;;
73508;SDS011;61750;55.036;73.312;2022-08-23T00:24:33;36.00;;;22.33;;
73508;SDS011;61750;55.036;73.312;2022-08-23T00:27:06;29.40;;;16.42;;
73508;SDS011;61750;55.036;73.312;2022-08-23T00:32:06;27.05;;;12.75;;
73508;SDS011;61750;55.036;73.312;2022-08-23T00:34:40;20.52;;;11.40;;
73508;SDS011;61750;55.036;73.312;2022-08-23T00:37:06;21.13;;;11.20;;
73508;SDS011;61750;55.036;73.312;2022-08-23T00:39:34;18.13;;;11.13;;
73508;SDS011;61750;55.036;73.312;2022-08-23T00:42:10;18.95;;;10.32;;
73508;SDS011;61750;55.036;73.312;2022-08-23T00:45:07;16.58;;;9.36;;
73508;SDS011;61750;55.036;73.312;2022-08-23T00:47:52;14.70;;;8.75;;
73508;SDS011;61750;55.036;73.312;2022-08-23T00:50:31;21.90;;;8.43;;
73508;SDS011;61750;55.036;73.312;2022-08-23T00:53:09;14.98;;;8.05;;
73508;SDS011;61750;55.036;73.312;2022-08-23T00:55:45;14.52;;;8.27;;
73508;SDS011;61750;55.036;73.312;2022-08-23T00:58:13;13.27;;;7.90;;
73508;SDS011;61750;55.036;73.312;2022-08-23T01:00:43;13.37;;;7.63;;
73508;SDS011;61750;55.036;73.312;2022-08-23T01:03:10;14.48;;;7.30;;
73508;SDS011;61750;55.036;73.312;2022-08-23T01:06:21;16.20;;;7.10;;
73508;SDS011;61750;55.036;73.312;2022-08-23T01:08:27;11.52;;;6.68;;
73508;SDS011;61750;55.036;73.312;2022-08-23T01:11:04;13.23;;;6.60;;
73508;SDS011;61750;55.036;73.312;2022-08-23T01:16:08;12.70;;;6.82;;
73508;SDS011;61750;55.036;73.312;2022-08-23T01:18:44;11.38;;;7.05;;
73508;SDS011;61750;55.036;73.312;2022-08-23T01:21:17;10.90;;;7.28;;
73508;SDS011;61750;55.036;73.312;2022-08-23T01:23:49;11.80;;;6.20;;
73508;SDS011;61750;55.036;73.312;2022-08-23T01:26:20;15.50;;;6.32;;
73508;SDS011;61750;55.036;73.312;2022-08-23T01:28:49;10.73;;;6.22;;
73508;SDS011;61750;55.036;73.312;2022-08-23T01:31:16;10.35;;;6.18;;
73508;SDS011;61750;55.036;73.312;2022-08-23T01:33:44;9.57;;;5.78;;
73508;SDS011;61750;55.036;73.312;2022-08-23T01:36:14;9.50;;;6.07;;
73508;SDS011;61750;55.036;73.312;2022-08-23T01:38:42;9.57;;;5.93;;
73508;SDS011;61750;55.036;73.312;2022-08-23T01:41:09;10.18;;;5.75;;
73508;SDS011;61750;55.036;73.312;2022-08-23T01:43:35;9.35;;;6.00;;
73508;SDS011;61750;55.036;73.312;2022-08-23T01:46:10;10.17;;;6.03;;
73508;SDS011;61750;55.036;73.312;2022-08-23T01:48:39;9.55;;;5.90;;
73508;SDS011;61750;55.036;73.312;2022-08-23T01:51:06;10.68;;;5.80;;
73508;SDS011;61750;55.036;73.312;2022-08-23T01:53:34;9.75;;;5.97;;
73508;SDS011;61750;55.036;73.312;2022-08-23T01:58:30;8.50;;;5.40;;
73508;SDS011;61750;55.036;73.312;2022-08-23T02:00:57;8.77;;;5.47;;
73508;SDS011;61750;55.036;73.312;2022-08-23T02:03:24;8.82;;;5.85;;
73508;SDS011;61750;55.036;73.312;2022-08-23T02:05:53;9.73;;;5.10;;
73508;SDS011;61750;55.036;73.312;2022-08-23T02:08:20;8.68;;;5.07;;
73508;SDS011;61750;55.036;73.312;2022-08-23T02:11:08;9.05;;;5.30;;
73508;SDS011;61750;55.036;73.312;2022-08-23T02:13:41;8.27;;;5.18;;
73508;SDS011;61750;55.036;73.312;2022-08-23T02:16:10;8.10;;;4.90;;
73508;SDS011;61750;55.036;73.312;2022-08-23T02:18:36;10.85;;;5.40;;
73508;SDS011;61750;55.036;73.312;2022-08-23T02:21:03;8.95;;;4.97;;
73508;SDS011;61750;55.036;73.312;2022-08-23T02:23:34;8.32;;;4.82;;
73508;SDS011;61750;55.036;73.312;2022-08-23T02:26:00;9.43;;;5.05;;
73508;SDS011;61750;55.036;73.312;2022-08-23T02:28:27;7.07;;;4.40;;
73508;SDS011;61750;55.036;73.312;2022-08-23T02:30:53;9.90;;;4.90;;
73508;SDS011;61750;55.036;73.312;2022-08-23T02:33:20;8.05;;;4.40;;
73508;SDS011;61750;55.036;73.312;2022-08-23T02:35:46;8.55;;;4.78;;
73508;SDS011;61750;55.036;73.312;2022-08-23T02:38:19;7.90;;;4.25;;
73508;SDS011;61750;55.036;73.312;2022-08-23T02:43:13;6.80;;;4.10;;
73508;SDS011;61750;55.036;73.312;2022-08-23T02:45:39;7.25;;;4.53;;
73508;SDS011;61750;55.036;73.312;2022-08-23T02:48:07;7.18;;;4.18;;
73508;SDS011;61750;55.036;73.312;2022-08-23T02:50:44;8.23;;;3.95;;
73508;SDS011;61750;55.036;73.312;2022-08-23T02:53:11;8.07;;;4.25;;
73508;SDS011;61750;55.036;73.312;2022-08-23T02:55:47;7.38;;;3.67;;
73508;SDS011;61750;55.036;73.312;2022-08-23T02:58:13;8.25;;;3.97;;
73508;SDS011;61750;55.036;73.312;2022-08-23T03:00:40;5.55;;;3.67;;
73508;SDS011;61750;55.036;73.312;2022-08-23T03:03:10;7.55;;;3.92;;
73508;SDS011;61750;55.036;73.312;2022-08-23T03:05:36;5.85;;;3.63;;
73508;SDS011;61750;55.036;73.312;2022-08-23T03:10:36;6.18;;;3.53;;
73508;SDS011;61750;55.036;73.312;2022-08-23T03:13:09;7.43;;;3.38;;
73508;SDS011;61750;55.036;73.312;2022-08-23T03:15:37;6.75;;;3.45;;
73508;SDS011;61750;55.036;73.312;2022-08-23T03:18:09;7.75;;;3.50;;
73508;SDS011;61750;55.036;73.312;2022-08-23T03:20:38;6.32;;;3.60;;
73508;SDS011;61750;55.036;73.312;2022-08-23T03:23:08;7.60;;;3.42;;
73508;SDS011;61750;55.036;73.312;2022-08-23T03:25:35;6.07;;;3.20;;
73508;SDS011;61750;55.036;73.312;2022-08-23T03:28:16;6.25;;;3.20;;
73508;SDS011;61750;55.036;73.312;2022-08-23T03:30:43;5.63;;;3.13;;
73508;SDS011;61750;55.036;73.312;2022-08-23T03:33:11;5.47;;;3.28;;
73508;SDS011;61750;55.036;73.312;2022-08-23T03:35:43;6.78;;;3.25;;
73508;SDS011;61750;55.036;73.312;2022-08-23T03:38:11;5.80;;;3.10;;
73508;SDS011;61750;55.036;73.312;2022-08-23T03:40:41;5.80;;;3.17;;
73508;SDS011;61750;55.036;73.312;2022-08-23T03:43:12;6.43;;;3.13;;
73508;SDS011;61750;55.036;73.312;2022-08-23T03:45:39;4.45;;;2.90;;
73508;SDS011;61750;55.036;73.312;2022-08-23T03:48:11;4.60;;;2.83;;
73508;SDS011;61750;55.036;73.312;2022-08-23T03:50:37;5.00;;;2.80;;
73508;SDS011;61750;55.036;73.312;2022-08-23T03:53:09;6.80;;;3.13;;
73508;SDS011;61750;55.036;73.312;2022-08-23T03:55:35;5.53;;;3.28;;
73508;SDS011;61750;55.036;73.312;2022-08-23T04:00:28;6.00;;;2.97;;
73508;SDS011;61750;55.036;73.312;2022-08-23T04:02:57;4.22;;;2.40;;
73508;SDS011;61750;55.036;73.312;2022-08-23T04:05:29;11.52;;;2.60;;
73508;SDS011;61750;55.036;73.312;2022-08-23T04:08:06;4.68;;;2.67;;
73508;SDS011;61750;55.036;73.312;2022-08-23T04:10:43;5.90;;;2.47;;
73508;SDS011;61750;55.036;73.312;2022-08-23T04:13:10;5.35;;;2.53;;
73508;SDS011;61750;55.036;73.312;2022-08-23T04:15:36;4.15;;;2.42;;
73508;SDS011;61750;55.036;73.312;2022-08-23T04:18:04;8.75;;;2.55;;
73508;SDS011;61750;55.036;73.312;2022-08-23T04:20:31;4.80;;;2.60;;
73508;SDS011;61750;55.036;73.312;2022-08-23T04:22:59;5.00;;;2.60;;
73508;SDS011;61750;55.036;73.312;2022-08-23T04:25:33;4.85;;;2.40;;
73508;SDS011;61750;55.036;73.312;2022-08-23T04:28:02;4.50;;;2.42;;
73508;SDS011;61750;55.036;73.312;2022-08-23T04:30:30;8.52;;;2.80;;
73508;SDS011;61750;55.036;73.312;2022-08-23T04:32:58;3.63;;;1.95;;
73508;SDS011;61750;55.036;73.312;2022-08-23T04:35:25;3.53;;;1.63;;
73508;SDS011;61750;55.036;73.312;2022-08-23T04:38:00;7.15;;;1.88;;
73508;SDS011;61750;55.036;73.312;2022-08-23T04:40:26;2.92;;;1.45;;
73508;SDS011;61750;55.036;73.312;2022-08-23T04:43:14;3.05;;;1.60;;
73508;SDS011;61750;55.036;73.312;2022-08-23T04:45:41;6.05;;;1.90;;
73508;SDS011;61750;55.036;73.312;2022-08-23T04:48:15;4.68;;;1.95;;
73508;SDS011;61750;55.036;73.312;2022-08-23T04:50:46;4.78;;;1.95;;
73508;SDS011;61750;55.036;73.312;2022-08-23T04:53:17;6.20;;;1.70;;
73508;SDS011;61750;55.036;73.312;2022-08-23T04:56:12;4.88;;;1.75;;
73508;SDS011;61750;55.036;73.312;2022-08-23T04:58:38;6.90;;;1.80;;
73508;SDS011;61750;55.036;73.312;2022-08-23T05:01:06;4.32;;;1.92;;
73508;SDS011;61750;55.036;73.312;2022-08-23T05:03:33;3.88;;;1.80;;
73508;SDS011;61750;55.036;73.312;2022-08-23T05:06:11;4.25;;;2.10;;
73508;SDS011;61750;55.036;73.312;2022-08-23T05:08:39;4.50;;;1.95;;
73508;SDS011;61750;55.036;73.312;2022-08-23T05:11:08;3.85;;;1.88;;
73508;SDS011;61750;55.036;73.312;2022-08-23T05:13:36;5.03;;;2.00;;
73508;SDS011;61750;55.036;73.312;2022-08-23T05:16:14;6.15;;;1.98;;
73508;SDS011;61750;55.036;73.312;2022-08-23T05:18:58;3.97;;;1.77;;
73508;SDS011;61750;55.036;73.312;2022-08-23T05:21:24;4.47;;;1.90;;
73508;SDS011;61750;55.036;73.312;2022-08-23T05:23:51;4.45;;;1.98;;
73508;SDS011;61750;55.036;73.312;2022-08-23T05:26:30;4.55;;;2.05;;
73508;SDS011;61750;55.036;73.312;2022-08-23T05:31:27;4.63;;;1.60;;
73508;SDS011;61750;55.036;73.312;2022-08-23T05:34:07;4.72;;;1.80;;
73508;SDS011;61750;55.036;73.312;2022-08-23T05:36:41;9.80;;;2.05;;
73508;SDS011;61750;55.036;73.312;2022-08-23T05:39:07;3.60;;;1.80;;
73508;SDS011;61750;55.036;73.312;2022-08-23T05:41:37;7.55;;;1.90;;
73508;SDS011;61750;55.036;73.312;2022-08-23T05:44:09;3.15;;;1.55;;
73508;SDS011;61750;55.036;73.312;2022-08-23T05:46:36;5.15;;;1.70;;
73508;SDS011;61750;55.036;73.312;2022-08-23T05:49:23;4.53;;;1.80;;
73508;SDS011;61750;55.036;73.312;2022-08-23T05:51:50;9.35;;;5.10;;
73508;SDS011;61750;55.036;73.312;2022-08-23T05:54:26;4.93;;;2.13;;
73508;SDS011;61750;55.036;73.312;2022-08-23T05:57:09;7.32;;;2.28;;
73508;SDS011;61750;55.036;73.312;2022-08-23T05:59:36;5.35;;;1.90;;
73508;SDS011;61750;55.036;73.312;2022-08-23T06:02:02;4.57;;;1.70;;
73508;SDS011;61750;55.036;73.312;2022-08-23T06:07:05;5.38;;;1.98;;
73508;SDS011;61750;55.036;73.312;2022-08-23T06:09:34;4.07;;;1.60;;
73508;SDS011;61750;55.036;73.312;2022-08-23T06:12:00;4.18;;;1.70;;
73508;SDS011;61750;55.036;73.312;2022-08-23T06:14:27;7.40;;;1.70;;
73508;SDS011;61750;55.036;73.312;2022-08-23T06:16:53;3.90;;;1.90;;
73508;SDS011;61750;55.036;73.312;2022-08-23T06:19:22;5.53;;;1.60;;
73508;SDS011;61750;55.036;73.312;2022-08-23T06:24:30;5.53;;;1.67;;
73508;SDS011;61750;55.036;73.312;2022-08-23T06:27:14;4.15;;;1.73;;
73508;SDS011;61750;55.036;73.312;2022-08-23T06:29:47;11.20;;;3.38;;
73508;SDS011;61750;55.036;73.312;2022-08-23T06:32:31;4.22;;;1.90;;
73508;SDS011;61750;55.036;73.312;2022-08-23T06:35:16;3.72;;;1.63;;
73508;SDS011;61750;55.036;73.312;2022-08-23T06:37:53;6.55;;;1.70;;
73508;SDS011;61750;55.036;73.312;2022-08-23T06:40:42;2.40;;;1.50;;
73508;SDS011;61750;55.036;73.312;2022-08-23T06:43:38;2.42;;;1.40;;
73508;SDS011;61750;55.036;73.312;2022-08-23T06:46:16;6.75;;;1.73;;
73508;SDS011;61750;55.036;73.312;2022-08-23T06:48:45;2.33;;;1.40;;
73508;SDS011;61750;55.036;73.312;2022-08-23T06:51:27;6.13;;;1.90;;
73508;SDS011;61750;55.036;73.312;2022-08-23T06:54:02;5.47;;;1.40;;
73508;SDS011;61750;55.036;73.312;2022-08-23T06:56:52;3.17;;;1.47;;
73508;SDS011;61750;55.036;73.312;2022-08-23T06:59:27;3.17;;;1.73;;
73508;SDS011;61750;55.036;73.312;2022-08-23T07:02:01;3.27;;;1.67;;
73508;SDS011;61750;55.036;73.312;2022-08-23T07:04:49;3.70;;;1.40;;
73508;SDS011;61750;55.036;73.312;2022-08-23T07:07:27;3.05;;;1.50;;
73508;SDS011;61750;55.036;73.312;2022-08-23T07:09:53;2.55;;;1.50;;
73508;SDS011;61750;55.036;73.312;2022-08-23T07:12:21;3.30;;;1.52;;
73508;SDS011;61750;55.036;73.312;2022-08-23T07:14:47;2.97;;;1.50;;
73508;SDS011;61750;55.036;73.312;2022-08-23T07:17:14;2.70;;;1.40;;
73508;SDS011;61750;55.036;73.312;2022-08-23T07:19:41;2.78;;;1.50;;
73508;SDS011;61750;55.036;73.312;2022-08-23T07:22:08;5.80;;;1.90;;
73508;SDS011;61750;55.036;73.312;2022-08-23T07:24:37;4.95;;;1.48;;
73508;SDS011;61750;55.036;73.312;2022-08-23T07:27:04;3.85;;;1.40;;
73508;SDS011;61750;55.036;73.312;2022-08-23T07:29:34;2.60;;;1.38;;
73508;SDS011;61750;55.036;73.312;2022-08-23T07:32:02;3.58;;;1.70;;
73508;SDS011;61750;55.036;73.312;2022-08-23T07:34:34;4.80;;;1.90;;
73508;SDS011;61750;55.036;73.312;2022-08-23T07:37:01;4.53;;;1.90;;
73508;SDS011;61750;55.036;73.312;2022-08-23T07:39:33;2.92;;;1.70;;
73508;SDS011;61750;55.036;73.312;2022-08-23T07:42:00;2.42;;;1.50;;
73508;SDS011;61750;55.036;73.312;2022-08-23T07:44:39;3.70;;;1.60;;
73508;SDS011;61750;55.036;73.312;2022-08-23T07:47:15;5.35;;;2.05;;
73508;SDS011;61750;55.036;73.312;2022-08-23T07:49:42;3.70;;;1.55;;
73508;SDS011;61750;55.036;73.312;2022-08-23T07:52:17;3.78;;;1.65;;
73508;SDS011;61750;55.036;73.312;2022-08-23T07:54:43;4.13;;;1.55;;
73508;SDS011;61750;55.036;73.312;2022-08-23T07:57:25;7.00;;;1.50;;
73508;SDS011;61750;55.036;73.312;2022-08-23T08:00:10;2.77;;;1.28;;
73508;SDS011;61750;55.036;73.312;2022-08-23T08:02:47;4.18;;;1.50;;
73508;SDS011;61750;55.036;73.312;2022-08-23T08:05:25;2.88;;;1.50;;
73508;SDS011;61750;55.036;73.312;2022-08-23T08:07:52;4.65;;;1.50;;
73508;SDS011;61750;55.036;73.312;2022-08-23T08:10:18;2.58;;;1.13;;
73508;SDS011;61750;55.036;73.312;2022-08-23T08:12:45;4.40;;;1.27;;
73508;SDS011;61750;55.036;73.312;2022-08-23T08:15:17;2.47;;;1.30;;
73508;SDS011;61750;55.036;73.312;2022-08-23T08:17:49;5.35;;;1.50;;
73508;SDS011;61750;55.036;73.312;2022-08-23T08:20:25;3.47;;;1.33;;
73508;SDS011;61750;55.036;73.312;2022-08-23T08:23:15;2.55;;;1.50;;
73508;SDS011;61750;55.036;73.312;2022-08-23T08:26:06;8.68;;;1.67;;
73508;SDS011;61750;55.036;73.312;2022-08-23T08:28:35;4.60;;;1.60;;
73508;SDS011;61750;55.036;73.312;2022-08-23T08:31:02;3.35;;;1.50;;
73508;SDS011;61750;55.036;73.312;2022-08-23T08:33:35;4.90;;;1.40;;
73508;SDS011;61750;55.036;73.312;2022-08-23T08:36:03;2.90;;;1.60;;
73508;SDS011;61750;55.036;73.312;2022-08-23T08:38:31;3.35;;;1.30;;
73508;SDS011;61750;55.036;73.312;2022-08-23T08:46:40;2.78;;;1.75;;
73508;SDS011;61750;55.036;73.312;2022-08-23T08:49:15;2.63;;;1.60;;
73508;SDS011;61750;55.036;73.312;2022-08-23T08:51:55;4.60;;;1.40;;
73508;SDS011;61750;55.036;73.312;2022-08-23T08:54:29;3.67;;;1.50;;
73508;SDS011;61750;55.036;73.312;2022-08-23T08:56:57;3.83;;;1.40;;
73508;SDS011;61750;55.036;73.312;2022-08-23T08:59:29;2.55;;;1.42;;
73508;SDS011;61750;55.036;73.312;2022-08-23T09:02:15;3.78;;;1.50;;
73508;SDS011;61750;55.036;73.312;2022-08-23T09:04:47;5.05;;;1.60;;
73508;SDS011;61750;55.036;73.312;2022-08-23T09:18:40;4.38;;;1.42;;
73508;SDS011;61750;55.036;73.312;2022-08-23T09:21:08;4.40;;;1.98;;
73508;SDS011;61750;55.036;73.312;2022-08-23T09:26:04;5.25;;;1.80;;
73508;SDS011;61750;55.036;73.312;2022-08-23T09:28:49;4.28;;;1.40;;
73508;SDS011;61750;55.036;73.312;2022-08-23T09:31:40;2.28;;;1.30;;
73508;SDS011;61750;55.036;73.312;2022-08-23T09:34:14;3.70;;;1.88;;
73508;SDS011;61750;55.036;73.312;2022-08-23T09:40:32;2.80;;;1.63;;
73508;SDS011;61750;55.036;73.312;2022-08-23T09:42:43;3.10;;;1.67;;
73508;SDS011;61750;55.036;73.312;2022-08-23T09:45:25;3.62;;;1.68;;
73508;SDS011;61750;55.036;73.312;2022-08-23T09:47:57;4.22;;;1.80;;
73508;SDS011;61750;55.036;73.312;2022-08-23T09:50:31;4.25;;;1.70;;
73508;SDS011;61750;55.036;73.312;2022-08-23T09:53:05;4.10;;;1.70;;
73508;SDS011;61750;55.036;73.312;2022-08-23T09:55:39;4.37;;;1.80;;
73508;SDS011;61750;55.036;73.312;2022-08-23T09:58:16;3.47;;;1.60;;
73508;SDS011;61750;55.036;73.312;2022-08-23T10:00:45;3.38;;;1.70;;
73508;SDS011;61750;55.036;73.312;2022-08-23T10:03:46;3.55;;;1.88;;
73508;SDS011;61750;55.036;73.312;2022-08-23T10:06:33;2.95;;;1.63;;
73508;SDS011;61750;55.036;73.312;2022-08-23T10:09:03;6.43;;;1.80;;
73508;SDS011;61750;55.036;73.312;2022-08-23T10:11:35;3.97;;;1.55;;
73508;SDS011;61750;55.036;73.312;2022-08-23T10:14:12;4.40;;;1.75;;
73508;SDS011;61750;55.036;73.312;2022-08-23T10:16:46;4.25;;;1.50;;
73508;SDS011;61750;55.036;73.312;2022-08-23T10:25:10;7.28;;;1.70;;
73508;SDS011;61750;55.036;73.312;2022-08-23T10:28:01;2.60;;;1.55;;
73508;SDS011;61750;55.036;73.312;2022-08-23T10:31:08;4.55;;;1.83;;
73508;SDS011;61750;55.036;73.312;2022-08-23T10:39:38;22.25;;;5.70;;
73508;SDS011;61750;55.036;73.312;2022-08-23T10:42:35;22.02;;;6.18;;
73508;SDS011;61750;55.036;73.312;2022-08-23T10:45:09;26.90;;;7.30;;
73508;SDS011;61750;55.036;73.312;2022-08-23T10:48:31;30.43;;;7.97;;
73508;SDS011;61750;55.036;73.312;2022-08-23T10:53:19;41.58;;;11.13;;
73508;SDS011;61750;55.036;73.312;2022-08-23T10:55:48;25.38;;;7.75;;
73508;SDS011;61750;55.036;73.312;2022-08-23T10:58:35;29.45;;;8.35;;
73508;SDS011;61750;55.036;73.312;2022-08-23T11:01:21;25.40;;;7.07;;
73508;SDS011;61750;55.036;73.312;2022-08-23T11:03:55;21.45;;;7.20;;
73508;SDS011;61750;55.036;73.312;2022-08-23T11:06:52;27.90;;;8.40;;
73508;SDS011;61750;55.036;73.312;2022-08-23T11:12:07;18.45;;;5.47;;
73508;SDS011;61750;55.036;73.312;2022-08-23T11:17:40;26.33;;;6.75;;
73508;SDS011;61750;55.036;73.312;2022-08-23T11:28:48;24.05;;;6.38;;
73508;SDS011;61750;55.036;73.312;2022-08-23T11:31:21;21.58;;;7.50;;
73508;SDS011;61750;55.036;73.312;2022-08-23T11:44:59;9.40;;;2.80;;
73508;SDS011;61750;55.036;73.312;2022-08-23T11:47:27;14.32;;;3.42;;
73508;SDS011;61750;55.036;73.312;2022-08-23T11:50:23;8.63;;;2.40;;
73508;SDS011;61750;55.036;73.312;2022-08-23T11:56:01;12.05;;;3.63;;
73508;SDS011;61750;55.036;73.312;2022-08-23T12:01:43;7.78;;;2.30;;
73508;SDS011;61750;55.036;73.312;2022-08-23T12:12:23;5.47;;;2.45;;
73508;SDS011;61750;55.036;73.312;2022-08-23T12:14:58;3.67;;;1.80;;
73508;SDS011;61750;55.036;73.312;2022-08-23T12:20:07;5.82;;;2.33;;
73508;SDS011;61750;55.036;73.312;2022-08-23T12:25:38;8.40;;;2.47;;
73508;SDS011;61750;55.036;73.312;2022-08-23T12:30:53;6.93;;;2.65;;
73508;SDS011;61750;55.036;73.312;2022-08-23T12:36:21;7.72;;;2.70;;
73508;SDS011;61750;55.036;73.312;2022-08-23T12:39:00;7.07;;;2.47;;
73508;SDS011;61750;55.036;73.312;2022-08-23T12:41:34;5.38;;;2.50;;
73508;SDS011;61750;55.036;73.312;2022-08-23T12:44:17;6.28;;;2.55;;
73508;SDS011;61750;55.036;73.312;2022-08-23T12:46:55;5.63;;;2.35;;
73508;SDS011;61750;55.036;73.312;2022-08-23T12:51:57;8.20;;;2.40;;
73508;SDS011;61750;55.036;73.312;2022-08-23T12:54:39;12.80;;;2.53;;
73508;SDS011;61750;55.036;73.312;2022-08-23T12:57:19;7.40;;;2.75;;
73508;SDS011;61750;55.036;73.312;2022-08-23T13:00:37;5.55;;;2.80;;
73508;SDS011;61750;55.036;73.312;2022-08-23T13:05:38;7.25;;;2.90;;
73508;SDS011;61750;55.036;73.312;2022-08-23T13:08:10;7.75;;;2.60;;
73508;SDS011;61750;55.036;73.312;2022-08-23T13:10:58;8.65;;;2.53;;
73508;SDS011;61750;55.036;73.312;2022-08-23T13:13:25;7.03;;;2.85;;
73508;SDS011;61750;55.036;73.312;2022-08-23T13:15:58;8.63;;;2.72;;
73508;SDS011;61750;55.036;73.312;2022-08-23T13:23:55;15.27;;;3.63;;
73508;SDS011;61750;55.036;73.312;2022-08-23T13:26:32;10.32;;;3.35;;
73508;SDS011;61750;55.036;73.312;2022-08-23T13:31:55;18.65;;;4.82;;
73508;SDS011;61750;55.036;73.312;2022-08-23T13:36:57;8.07;;;3.00;;
73508;SDS011;61750;55.036;73.312;2022-08-23T13:39:25;11.20;;;3.05;;
73508;SDS011;61750;55.036;73.312;2022-08-23T13:41:57;6.70;;;2.83;;
73508;SDS011;61750;55.036;73.312;2022-08-23T13:46:50;10.77;;;3.00;;
73508;SDS011;61750;55.036;73.312;2022-08-23T13:49:26;9.65;;;2.60;;
73508;SDS011;61750;55.036;73.312;2022-08-23T13:54:27;14.52;;;3.30;;
73508;SDS011;61750;55.036;73.312;2022-08-23T13:57:05;12.80;;;3.75;;
73508;SDS011;61750;55.036;73.312;2022-08-23T13:59:40;12.18;;;3.65;;
73508;SDS011;61750;55.036;73.312;2022-08-23T14:02:12;13.80;;;3.75;;
73508;SDS011;61750;55.036;73.312;2022-08-23T14:04:42;9.07;;;4.13;;
73508;SDS011;61750;55.036;73.312;2022-08-23T14:07:09;11.18;;;4.22;;
73508;SDS011;61750;55.036;73.312;2022-08-23T14:09:36;10.95;;;5.00;;
73508;SDS011;61750;55.036;73.312;2022-08-23T14:12:10;12.38;;;4.97;;
73508;SDS011;61750;55.036;73.312;2022-08-23T14:14:40;16.80;;;5.80;;
73508;SDS011;61750;55.036;73.312;2022-08-23T14:17:12;10.40;;;5.32;;
73508;SDS011;61750;55.036;73.312;2022-08-23T14:19:40;15.82;;;6.18;;
73508;SDS011;61750;55.036;73.312;2022-08-23T14:22:07;12.30;;;5.60;;
73508;SDS011;61750;55.036;73.312;2022-08-23T14:24:33;15.93;;;5.35;;
73508;SDS011;61750;55.036;73.312;2022-08-23T14:27:00;14.23;;;5.75;;
73508;SDS011;61750;55.036;73.312;2022-08-23T14:32:07;13.55;;;5.40;;
73508;SDS011;61750;55.036;73.312;2022-08-23T14:34:33;14.15;;;5.55;;
73508;SDS011;61750;55.036;73.312;2022-08-23T14:36:59;15.35;;;5.38;;
73508;SDS011;61750;55.036;73.312;2022-08-23T14:39:25;15.88;;;5.75;;
73508;SDS011;61750;55.036;73.312;2022-08-23T14:41:52;11.38;;;4.97;;
73508;SDS011;61750;55.036;73.312;2022-08-23T14:44:18;16.25;;;5.65;;
73508;SDS011;61750;55.036;73.312;2022-08-23T14:46:44;13.80;;;5.55;;
73508;SDS011;61750;55.036;73.312;2022-08-23T14:49:11;16.27;;;5.63;;
73508;SDS011;61750;55.036;73.312;2022-08-23T14:51:43;12.68;;;5.95;;
73508;SDS011;61750;55.036;73.312;2022-08-23T14:54:18;14.35;;;5.70;;
73508;SDS011;61750;55.036;73.312;2022-08-23T14:56:47;18.02;;;4.97;;
73508;SDS011;61750;55.036;73.312;2022-08-23T14:59:13;15.13;;;5.28;;
73508;SDS011;61750;55.036;73.312;2022-08-23T15:01:40;16.25;;;5.07;;
73508;SDS011;61750;55.036;73.312;2022-08-23T15:06:32;15.00;;;5.40;;
73508;SDS011;61750;55.036;73.312;2022-08-23T15:08:59;12.68;;;4.78;;
73508;SDS011;61750;55.036;73.312;2022-08-23T15:11:26;13.63;;;4.93;;
73508;SDS011;61750;55.036;73.312;2022-08-23T15:13:57;15.25;;;5.00;;
73508;SDS011;61750;55.036;73.312;2022-08-23T15:16:24;16.77;;;4.80;;
73508;SDS011;61750;55.036;73.312;2022-08-23T15:19:00;17.55;;;4.70;;
73508;SDS011;61750;55.036;73.312;2022-08-23T15:21:27;12.85;;;4.95;;
73508;SDS011;61750;55.036;73.312;2022-08-23T15:23:53;17.45;;;4.82;;
73508;SDS011;61750;55.036;73.312;2022-08-23T15:26:21;12.48;;;5.00;;
73508;SDS011;61750;55.036;73.312;2022-08-23T15:28:51;16.24;;;5.10;;
73508;SDS011;61750;55.036;73.312;2022-08-23T15:31:27;14.30;;;4.47;;
73508;SDS011;61750;55.036;73.312;2022-08-23T15:36:19;12.27;;;4.88;;
73508;SDS011;61750;55.036;73.312;2022-08-23T15:41:18;12.55;;;4.70;;
73508;SDS011;61750;55.036;73.312;2022-08-23T15:43:46;15.45;;;4.85;;
73508;SDS011;61750;55.036;73.312;2022-08-23T15:46:17;13.10;;;4.72;;
73508;SDS011;61750;55.036;73.312;2022-08-23T15:48:50;13.80;;;5.07;;
73508;SDS011;61750;55.036;73.312;2022-08-23T15:51:21;11.20;;;4.60;;
73508;SDS011;61750;55.036;73.312;2022-08-23T15:53:47;20.63;;;5.28;;
73508;SDS011;61750;55.036;73.312;2022-08-23T15:56:14;9.70;;;4.70;;
73508;SDS011;61750;55.036;73.312;2022-08-23T15:58:44;14.95;;;4.93;;
73508;SDS011;61750;55.036;73.312;2022-08-23T16:01:11;14.00;;;4.90;;
73508;SDS011;61750;55.036;73.312;2022-08-23T16:03:38;14.93;;;4.55;;
73508;SDS011;61750;55.036;73.312;2022-08-23T16:06:12;19.60;;;5.07;;
73508;SDS011;61750;55.036;73.312;2022-08-23T16:08:40;13.75;;;4.65;;
73508;SDS011;61750;55.036;73.312;2022-08-23T16:11:13;14.60;;;4.65;;
73508;SDS011;61750;55.036;73.312;2022-08-23T16:13:40;24.05;;;4.95;;
73508;SDS011;61750;55.036;73.312;2022-08-23T16:16:19;17.80;;;4.60;;
73508;SDS011;61750;55.036;73.312;2022-08-23T16:18:52;17.83;;;5.10;;
73508;SDS011;61750;55.036;73.312;2022-08-23T16:21:20;16.95;;;4.75;;
73508;SDS011;61750;55.036;73.312;2022-08-23T16:23:47;14.38;;;4.97;;
73508;SDS011;61750;55.036;73.312;2022-08-23T16:28:46;15.50;;;5.63;;
73508;SDS011;61750;55.036;73.312;2022-08-23T16:31:17;20.00;;;5.97;;
73508;SDS011;61750;55.036;73.312;2022-08-23T16:33:46;23.27;;;6.47;;
73508;SDS011;61750;55.036;73.312;2022-08-23T16:36:22;23.47;;;6.30;;
73508;SDS011;61750;55.036;73.312;2022-08-23T16:38:49;20.83;;;6.53;;
73508;SDS011;61750;55.036;73.312;2022-08-23T16:41:15;25.20;;;7.60;;
73508;SDS011;61750;55.036;73.312;2022-08-23T16:43:42;22.88;;;6.88;;
73508;SDS011;61750;55.036;73.312;2022-08-23T16:46:13;22.85;;;8.45;;
73508;SDS011;61750;55.036;73.312;2022-08-23T16:48:43;25.40;;;10.25;;
73508;SDS011;61750;55.036;73.312;2022-08-23T16:51:12;22.92;;;10.45;;
73508;SDS011;61750;55.036;73.312;2022-08-23T16:53:38;24.98;;;11.48;;
73508;SDS011;61750;55.036;73.312;2022-08-23T16:56:05;26.02;;;12.35;;
73508;SDS011;61750;55.036;73.312;2022-08-23T16:58:42;33.15;;;12.50;;
73508;SDS011;61750;55.036;73.312;2022-08-23T17:01:13;24.73;;;12.55;;
73508;SDS011;61750;55.036;73.312;2022-08-23T17:03:41;30.40;;;13.20;;
73508;SDS011;61750;55.036;73.312;2022-08-23T17:06:08;26.95;;;12.65;;
73508;SDS011;61750;55.036;73.312;2022-08-23T17:08:35;29.20;;;12.55;;
73508;SDS011;61750;55.036;73.312;2022-08-23T17:11:02;25.98;;;11.73;;
73508;SDS011;61750;55.036;73.312;2022-08-23T17:13:30;23.77;;;10.50;;
73508;SDS011;61750;55.036;73.312;2022-08-23T17:15:56;19.60;;;10.25;;
73508;SDS011;61750;55.036;73.312;2022-08-23T17:18:23;18.60;;;9.95;;
73508;SDS011;61750;55.036;73.312;2022-08-23T17:23:15;22.42;;;9.73;;
73508;SDS011;61750;55.036;73.312;2022-08-23T17:25:42;24.35;;;8.85;;
73508;SDS011;61750;55.036;73.312;2022-08-23T17:28:12;16.58;;;8.23;;